<?xml version="1.0" encoding="UTF-8" standalone="no" ?>
<gpx xmlns="http://www.topografix.com/GPX/1/1" xmlns:xsi="http://www.w3.org/2001/XMLSchema-instance" xsi:schemaLocation="http://www.topografix.com/GPX/1/1 http://www.topografix.com/GPX/1/1/gpx.xsd" version="1.1" creator="VisuGPX - https://www.visugpx.com">
  <metadata>
    <name>POUTASSAOU HW</name>
    <desc><![CDATA[Lyons
Galline
Vernades
POUTASSAOU
Grimaud
Pont de fées
Karting
Oratoire
Camping de la plage
]]></desc>
  </metadata>
  <trk>
    <name><![CDATA[Lyons Suane Vernades POUTASSAOU]]></name>
    <trkseg>
      <trkpt lat="43.2817" lon="6.58738">
        <ele>2</ele>
        <time>2017-07-24T05:09:55Z</time>
      </trkpt>
      <trkpt lat="43.28174" lon="6.58696">
        <ele>3</ele>
        <time>2017-07-24T06:01:35Z</time>
      </trkpt>
      <trkpt lat="43.28167" lon="6.58747">
        <ele>2</ele>
        <time>2017-07-24T06:01:51Z</time>
      </trkpt>
      <trkpt lat="43.28168" lon="6.58737">
        <ele>2</ele>
        <time>2017-07-24T06:02:07Z</time>
      </trkpt>
      <trkpt lat="43.28169" lon="6.58738">
        <ele>2</ele>
        <time>2017-07-24T06:02:32Z</time>
      </trkpt>
      <trkpt lat="43.28176" lon="6.58718">
        <ele>3</ele>
        <time>2017-07-24T06:05:27Z</time>
      </trkpt>
      <trkpt lat="43.2817" lon="6.58763">
        <ele>2</ele>
        <time>2017-07-24T06:05:57Z</time>
      </trkpt>
      <trkpt lat="43.28184" lon="6.58734">
        <ele>3</ele>
        <time>2017-07-24T06:06:26Z</time>
      </trkpt>
      <trkpt lat="43.28172" lon="6.58742">
        <ele>2</ele>
        <time>2017-07-24T06:10:03Z</time>
      </trkpt>
      <trkpt lat="43.28186" lon="6.58739">
        <ele>3</ele>
        <time>2017-07-24T06:17:43Z</time>
      </trkpt>
      <trkpt lat="43.2818" lon="6.58686">
        <ele>3</ele>
        <time>2017-07-24T06:18:02Z</time>
      </trkpt>
      <trkpt lat="43.28192" lon="6.58633">
        <ele>5</ele>
        <time>2017-07-24T06:18:19Z</time>
      </trkpt>
      <trkpt lat="43.28202" lon="6.58586">
        <ele>6</ele>
        <time>2017-07-24T06:18:35Z</time>
      </trkpt>
      <trkpt lat="43.28188" lon="6.5853">
        <ele>6</ele>
        <time>2017-07-24T06:18:49Z</time>
      </trkpt>
      <trkpt lat="43.28174" lon="6.58474">
        <ele>6</ele>
        <time>2017-07-24T06:19:02Z</time>
      </trkpt>
      <trkpt lat="43.2816" lon="6.58418">
        <ele>6</ele>
        <time>2017-07-24T06:19:14Z</time>
      </trkpt>
      <trkpt lat="43.28145" lon="6.5836">
        <ele>5</ele>
        <time>2017-07-24T06:19:25Z</time>
      </trkpt>
      <trkpt lat="43.28132" lon="6.58305">
        <ele>6</ele>
        <time>2017-07-24T06:19:38Z</time>
      </trkpt>
      <trkpt lat="43.28134" lon="6.58267">
        <ele>6</ele>
        <time>2017-07-24T06:20:02Z</time>
      </trkpt>
      <trkpt lat="43.28156" lon="6.58225">
        <ele>6</ele>
        <time>2017-07-24T06:20:14Z</time>
      </trkpt>
      <trkpt lat="43.2815" lon="6.58171">
        <ele>6</ele>
        <time>2017-07-24T06:20:25Z</time>
      </trkpt>
      <trkpt lat="43.28117" lon="6.58134">
        <ele>6</ele>
        <time>2017-07-24T06:20:36Z</time>
      </trkpt>
      <trkpt lat="43.28103" lon="6.58084">
        <ele>6</ele>
        <time>2017-07-24T06:20:47Z</time>
      </trkpt>
      <trkpt lat="43.28034" lon="6.57904">
        <ele>7</ele>
        <time>2017-07-24T06:20:59Z</time>
      </trkpt>
      <trkpt lat="43.28175" lon="6.57729">
        <ele>12</ele>
        <time>2017-07-24T06:21:09Z</time>
      </trkpt>
      <trkpt lat="43.28249" lon="6.57698">
        <ele>11</ele>
        <time>2017-07-24T06:21:19Z</time>
      </trkpt>
      <trkpt lat="43.28333" lon="6.57612">
        <ele>14</ele>
        <time>2017-07-24T06:21:31Z</time>
      </trkpt>
      <trkpt lat="43.28427" lon="6.57613">
        <ele>12</ele>
        <time>2017-07-24T06:21:45Z</time>
      </trkpt>
      <trkpt lat="43.2854" lon="6.57602">
        <ele>13</ele>
        <time>2017-07-24T06:21:59Z</time>
      </trkpt>
      <trkpt lat="43.28614" lon="6.57559">
        <ele>14</ele>
        <time>2017-07-24T06:22:14Z</time>
      </trkpt>
      <trkpt lat="43.28717" lon="6.57455">
        <ele>16</ele>
        <time>2017-07-24T06:22:31Z</time>
      </trkpt>
      <trkpt lat="43.28817" lon="6.57444">
        <ele>21</ele>
        <time>2017-07-24T06:22:51Z</time>
      </trkpt>
      <trkpt lat="43.28957" lon="6.57418">
        <ele>29</ele>
        <time>2017-07-24T06:23:11Z</time>
      </trkpt>
      <trkpt lat="43.2904" lon="6.57374">
        <ele>30</ele>
        <time>2017-07-24T06:23:35Z</time>
      </trkpt>
      <trkpt lat="43.29167" lon="6.57445">
        <ele>38</ele>
        <time>2017-07-24T06:24:00Z</time>
      </trkpt>
      <trkpt lat="43.29373" lon="6.57491">
        <ele>43</ele>
        <time>2017-07-24T06:24:20Z</time>
      </trkpt>
      <trkpt lat="43.29428" lon="6.57576">
        <ele>47</ele>
        <time>2017-07-24T06:24:37Z</time>
      </trkpt>
      <trkpt lat="43.29404" lon="6.57734">
        <ele>52</ele>
        <time>2017-07-24T06:24:56Z</time>
      </trkpt>
      <trkpt lat="43.29445" lon="6.57762">
        <ele>57</ele>
        <time>2017-07-24T06:25:15Z</time>
      </trkpt>
      <trkpt lat="43.29482" lon="6.57749">
        <ele>59</ele>
        <time>2017-07-24T06:25:37Z</time>
      </trkpt>
      <trkpt lat="43.29549" lon="6.57757">
        <ele>65</ele>
        <time>2017-07-24T06:25:55Z</time>
      </trkpt>
      <trkpt lat="43.29587" lon="6.57766">
        <ele>67</ele>
        <time>2017-07-24T06:26:10Z</time>
      </trkpt>
      <trkpt lat="43.29619" lon="6.57818">
        <ele>71</ele>
        <time>2017-07-24T06:26:23Z</time>
      </trkpt>
      <trkpt lat="43.29627" lon="6.57889">
        <ele>75</ele>
        <time>2017-07-24T06:26:39Z</time>
      </trkpt>
      <trkpt lat="43.2966" lon="6.57962">
        <ele>78</ele>
        <time>2017-07-24T06:26:55Z</time>
      </trkpt>
      <trkpt lat="43.29723" lon="6.57958">
        <ele>80</ele>
        <time>2017-07-24T06:36:25Z</time>
      </trkpt>
      <trkpt lat="43.29792" lon="6.57935">
        <ele>80</ele>
        <time>2017-07-24T06:36:45Z</time>
      </trkpt>
      <trkpt lat="43.29738" lon="6.58202">
        <ele>96</ele>
        <time>2017-07-24T06:37:08Z</time>
      </trkpt>
      <trkpt lat="43.29765" lon="6.5826">
        <ele>101</ele>
        <time>2017-07-24T06:37:33Z</time>
      </trkpt>
      <trkpt lat="43.29806" lon="6.58306">
        <ele>106</ele>
        <time>2017-07-24T06:37:55Z</time>
      </trkpt>
      <trkpt lat="43.29812" lon="6.58377">
        <ele>111</ele>
        <time>2017-07-24T06:38:20Z</time>
      </trkpt>
      <trkpt lat="43.29858" lon="6.58414">
        <ele>119</ele>
        <time>2017-07-24T06:38:51Z</time>
      </trkpt>
      <trkpt lat="43.2987" lon="6.58458">
        <ele>124</ele>
        <time>2017-07-24T06:39:25Z</time>
      </trkpt>
      <trkpt lat="43.29913" lon="6.58498">
        <ele>134</ele>
        <time>2017-07-24T06:39:56Z</time>
      </trkpt>
      <trkpt lat="43.29925" lon="6.58552">
        <ele>140</ele>
        <time>2017-07-24T06:41:00Z</time>
      </trkpt>
      <trkpt lat="43.29984" lon="6.58602">
        <ele>150</ele>
        <time>2017-07-24T06:41:30Z</time>
      </trkpt>
      <trkpt lat="43.29993" lon="6.58672">
        <ele>153</ele>
        <time>2017-07-24T06:42:00Z</time>
      </trkpt>
      <trkpt lat="43.30031" lon="6.58694">
        <ele>158</ele>
        <time>2017-07-24T06:42:30Z</time>
      </trkpt>
      <trkpt lat="43.30066" lon="6.58721">
        <ele>162</ele>
        <time>2017-07-24T06:42:57Z</time>
      </trkpt>
      <trkpt lat="43.30104" lon="6.58736">
        <ele>166</ele>
        <time>2017-07-24T06:43:23Z</time>
      </trkpt>
      <trkpt lat="43.30143" lon="6.58745">
        <ele>165</ele>
        <time>2017-07-24T06:43:47Z</time>
      </trkpt>
      <trkpt lat="43.30184" lon="6.58731">
        <ele>165</ele>
        <time>2017-07-24T06:43:57Z</time>
      </trkpt>
      <trkpt lat="43.30226" lon="6.58737">
        <ele>166</ele>
        <time>2017-07-24T06:44:08Z</time>
      </trkpt>
      <trkpt lat="43.3026" lon="6.58768">
        <ele>167</ele>
        <time>2017-07-24T06:44:29Z</time>
      </trkpt>
      <trkpt lat="43.30296" lon="6.58796">
        <ele>169</ele>
        <time>2017-07-24T06:44:50Z</time>
      </trkpt>
      <trkpt lat="43.30333" lon="6.58822">
        <ele>172</ele>
        <time>2017-07-24T06:45:07Z</time>
      </trkpt>
      <trkpt lat="43.30369" lon="6.58844">
        <ele>175</ele>
        <time>2017-07-24T06:45:23Z</time>
      </trkpt>
      <trkpt lat="43.30409" lon="6.58868">
        <ele>176</ele>
        <time>2017-07-24T06:45:39Z</time>
      </trkpt>
      <trkpt lat="43.30448" lon="6.58875">
        <ele>178</ele>
        <time>2017-07-24T06:45:58Z</time>
      </trkpt>
      <trkpt lat="43.30489" lon="6.58888">
        <ele>178</ele>
        <time>2017-07-24T06:46:18Z</time>
      </trkpt>
      <trkpt lat="43.30529" lon="6.58888">
        <ele>179</ele>
        <time>2017-07-24T06:46:33Z</time>
      </trkpt>
      <trkpt lat="43.30571" lon="6.58882">
        <ele>180</ele>
        <time>2017-07-24T06:46:45Z</time>
      </trkpt>
      <trkpt lat="43.30612" lon="6.58898">
        <ele>178</ele>
        <time>2017-07-24T06:46:56Z</time>
      </trkpt>
      <trkpt lat="43.3065" lon="6.58921">
        <ele>175</ele>
        <time>2017-07-24T06:47:07Z</time>
      </trkpt>
      <trkpt lat="43.30691" lon="6.58929">
        <ele>175</ele>
        <time>2017-07-24T06:47:18Z</time>
      </trkpt>
      <trkpt lat="43.30733" lon="6.58931">
        <ele>176</ele>
        <time>2017-07-24T06:47:30Z</time>
      </trkpt>
      <trkpt lat="43.30774" lon="6.58926">
        <ele>178</ele>
        <time>2017-07-24T06:47:43Z</time>
      </trkpt>
      <trkpt lat="43.30815" lon="6.58923">
        <ele>180</ele>
        <time>2017-07-24T06:47:57Z</time>
      </trkpt>
      <trkpt lat="43.30857" lon="6.58924">
        <ele>181</ele>
        <time>2017-07-24T06:48:18Z</time>
      </trkpt>
      <trkpt lat="43.30862" lon="6.58891">
        <ele>182</ele>
        <time>2017-07-24T06:59:51Z</time>
      </trkpt>
      <trkpt lat="43.30871" lon="6.58838">
        <ele>186</ele>
        <time>2017-07-24T07:00:13Z</time>
      </trkpt>
      <trkpt lat="43.30888" lon="6.5879">
        <ele>190</ele>
        <time>2017-07-24T07:00:34Z</time>
      </trkpt>
      <trkpt lat="43.30907" lon="6.58739">
        <ele>193</ele>
        <time>2017-07-24T07:00:56Z</time>
      </trkpt>
      <trkpt lat="43.30935" lon="6.58696">
        <ele>194</ele>
        <time>2017-07-24T07:01:14Z</time>
      </trkpt>
      <trkpt lat="43.30964" lon="6.58654">
        <ele>191</ele>
        <time>2017-07-24T07:01:29Z</time>
      </trkpt>
      <trkpt lat="43.30955" lon="6.58597">
        <ele>192</ele>
        <time>2017-07-24T07:01:41Z</time>
      </trkpt>
      <trkpt lat="43.30945" lon="6.58543">
        <ele>192</ele>
        <time>2017-07-24T07:01:52Z</time>
      </trkpt>
      <trkpt lat="43.30938" lon="6.58487">
        <ele>191</ele>
        <time>2017-07-24T07:02:05Z</time>
      </trkpt>
      <trkpt lat="43.30924" lon="6.58432">
        <ele>192</ele>
        <time>2017-07-24T07:02:17Z</time>
      </trkpt>
      <trkpt lat="43.30918" lon="6.58378">
        <ele>193</ele>
        <time>2017-07-24T07:02:32Z</time>
      </trkpt>
      <trkpt lat="43.30925" lon="6.58325">
        <ele>195</ele>
        <time>2017-07-24T07:02:52Z</time>
      </trkpt>
      <trkpt lat="43.30919" lon="6.5827">
        <ele>197</ele>
        <time>2017-07-24T07:03:16Z</time>
      </trkpt>
      <trkpt lat="43.30918" lon="6.58215">
        <ele>200</ele>
        <time>2017-07-24T07:03:41Z</time>
      </trkpt>
      <trkpt lat="43.30937" lon="6.58166">
        <ele>206</ele>
        <time>2017-07-24T07:04:07Z</time>
      </trkpt>
      <trkpt lat="43.30971" lon="6.58132">
        <ele>210</ele>
        <time>2017-07-24T07:04:32Z</time>
      </trkpt>
      <trkpt lat="43.31006" lon="6.58102">
        <ele>212</ele>
        <time>2017-07-24T07:04:55Z</time>
      </trkpt>
      <trkpt lat="43.3104" lon="6.58072">
        <ele>213</ele>
        <time>2017-07-24T07:05:21Z</time>
      </trkpt>
      <trkpt lat="43.31053" lon="6.58023">
        <ele>214</ele>
        <time>2017-07-24T07:05:49Z</time>
      </trkpt>
      <trkpt lat="43.31048" lon="6.57971">
        <ele>217</ele>
        <time>2017-07-24T07:06:17Z</time>
      </trkpt>
      <trkpt lat="43.3105" lon="6.57915">
        <ele>217</ele>
        <time>2017-07-24T07:06:35Z</time>
      </trkpt>
      <trkpt lat="43.31041" lon="6.5786">
        <ele>218</ele>
        <time>2017-07-24T07:06:47Z</time>
      </trkpt>
      <trkpt lat="43.31021" lon="6.57812">
        <ele>221</ele>
        <time>2017-07-24T07:07:04Z</time>
      </trkpt>
      <trkpt lat="43.30991" lon="6.57772">
        <ele>224</ele>
        <time>2017-07-24T07:07:23Z</time>
      </trkpt>
      <trkpt lat="43.30977" lon="6.57724">
        <ele>226</ele>
        <time>2017-07-24T07:07:45Z</time>
      </trkpt>
      <trkpt lat="43.30983" lon="6.57671">
        <ele>228</ele>
        <time>2017-07-24T07:08:10Z</time>
      </trkpt>
      <trkpt lat="43.30992" lon="6.57619">
        <ele>233</ele>
        <time>2017-07-24T07:08:38Z</time>
      </trkpt>
      <trkpt lat="43.30979" lon="6.57572">
        <ele>236</ele>
        <time>2017-07-24T07:09:05Z</time>
      </trkpt>
      <trkpt lat="43.30949" lon="6.57538">
        <ele>234</ele>
        <time>2017-07-24T07:09:34Z</time>
      </trkpt>
      <trkpt lat="43.3095" lon="6.57484">
        <ele>243</ele>
        <time>2017-07-24T07:10:04Z</time>
      </trkpt>
      <trkpt lat="43.30942" lon="6.57433">
        <ele>249</ele>
        <time>2017-07-24T07:10:31Z</time>
      </trkpt>
      <trkpt lat="43.30914" lon="6.57394">
        <ele>249</ele>
        <time>2017-07-24T07:11:02Z</time>
      </trkpt>
      <trkpt lat="43.30899" lon="6.57347">
        <ele>251</ele>
        <time>2017-07-24T07:11:31Z</time>
      </trkpt>
      <trkpt lat="43.30891" lon="6.57294">
        <ele>253</ele>
        <time>2017-07-24T07:12:00Z</time>
      </trkpt>
      <trkpt lat="43.309" lon="6.5724">
        <ele>257</ele>
        <time>2017-07-24T07:12:25Z</time>
      </trkpt>
      <trkpt lat="43.30915" lon="6.57186">
        <ele>262</ele>
        <time>2017-07-24T07:12:45Z</time>
      </trkpt>
      <trkpt lat="43.30909" lon="6.5713">
        <ele>262</ele>
        <time>2017-07-24T07:12:59Z</time>
      </trkpt>
      <trkpt lat="43.30904" lon="6.57075">
        <ele>262</ele>
        <time>2017-07-24T07:17:40Z</time>
      </trkpt>
      <trkpt lat="43.30926" lon="6.57025">
        <ele>260</ele>
        <time>2017-07-24T07:17:58Z</time>
      </trkpt>
      <trkpt lat="43.30959" lon="6.56986">
        <ele>257</ele>
        <time>2017-07-24T07:18:09Z</time>
      </trkpt>
      <trkpt lat="43.30996" lon="6.56963">
        <ele>256</ele>
        <time>2017-07-24T07:18:18Z</time>
      </trkpt>
      <trkpt lat="43.31029" lon="6.56924">
        <ele>251</ele>
        <time>2017-07-24T07:18:29Z</time>
      </trkpt>
      <trkpt lat="43.31055" lon="6.5688">
        <ele>247</ele>
        <time>2017-07-24T07:18:39Z</time>
      </trkpt>
      <trkpt lat="43.31069" lon="6.56825">
        <ele>241</ele>
        <time>2017-07-24T07:18:50Z</time>
      </trkpt>
      <trkpt lat="43.31091" lon="6.56774">
        <ele>238</ele>
        <time>2017-07-24T07:19:00Z</time>
      </trkpt>
      <trkpt lat="43.31119" lon="6.56733">
        <ele>237</ele>
        <time>2017-07-24T07:19:10Z</time>
      </trkpt>
      <trkpt lat="43.31099" lon="6.56691">
        <ele>238</ele>
        <time>2017-07-24T07:19:29Z</time>
      </trkpt>
      <trkpt lat="43.31066" lon="6.56665">
        <ele>236</ele>
        <time>2017-07-24T07:19:53Z</time>
      </trkpt>
      <trkpt lat="43.31038" lon="6.56623">
        <ele>242</ele>
        <time>2017-07-24T07:20:14Z</time>
      </trkpt>
      <trkpt lat="43.31008" lon="6.56583">
        <ele>243</ele>
        <time>2017-07-24T07:20:32Z</time>
      </trkpt>
      <trkpt lat="43.30973" lon="6.56552">
        <ele>243</ele>
        <time>2017-07-24T07:20:45Z</time>
      </trkpt>
      <trkpt lat="43.30937" lon="6.56524">
        <ele>241</ele>
        <time>2017-07-24T07:20:55Z</time>
      </trkpt>
      <trkpt lat="43.30904" lon="6.56493">
        <ele>239</ele>
        <time>2017-07-24T07:21:04Z</time>
      </trkpt>
      <trkpt lat="43.30881" lon="6.56441">
        <ele>243</ele>
        <time>2017-07-24T07:21:12Z</time>
      </trkpt>
      <trkpt lat="43.30845" lon="6.56439">
        <ele>238</ele>
        <time>2017-07-24T07:21:22Z</time>
      </trkpt>
      <trkpt lat="43.30802" lon="6.56437">
        <ele>236</ele>
        <time>2017-07-24T07:21:34Z</time>
      </trkpt>
      <trkpt lat="43.30763" lon="6.56447">
        <ele>230</ele>
        <time>2017-07-24T07:21:45Z</time>
      </trkpt>
      <trkpt lat="43.30722" lon="6.56444">
        <ele>231</ele>
        <time>2017-07-24T07:21:54Z</time>
      </trkpt>
      <trkpt lat="43.30681" lon="6.56442">
        <ele>230</ele>
        <time>2017-07-24T07:22:02Z</time>
      </trkpt>
      <trkpt lat="43.30638" lon="6.56453">
        <ele>225</ele>
        <time>2017-07-24T07:22:09Z</time>
      </trkpt>
      <trkpt lat="43.30598" lon="6.56441">
        <ele>225</ele>
        <time>2017-07-24T07:22:15Z</time>
      </trkpt>
      <trkpt lat="43.30564" lon="6.56408">
        <ele>230</ele>
        <time>2017-07-24T07:22:22Z</time>
      </trkpt>
      <trkpt lat="43.30524" lon="6.5641">
        <ele>225</ele>
        <time>2017-07-24T07:22:29Z</time>
      </trkpt>
      <trkpt lat="43.30483" lon="6.56416">
        <ele>219</ele>
        <time>2017-07-24T07:22:35Z</time>
      </trkpt>
      <trkpt lat="43.30441" lon="6.5641">
        <ele>214</ele>
        <time>2017-07-24T07:22:40Z</time>
      </trkpt>
      <trkpt lat="43.30399" lon="6.56402">
        <ele>211</ele>
        <time>2017-07-24T07:22:45Z</time>
      </trkpt>
      <trkpt lat="43.30356" lon="6.56392">
        <ele>209</ele>
        <time>2017-07-24T07:22:52Z</time>
      </trkpt>
      <trkpt lat="43.3032" lon="6.56422">
        <ele>202</ele>
        <time>2017-07-24T07:22:58Z</time>
      </trkpt>
      <trkpt lat="43.30285" lon="6.56447">
        <ele>199</ele>
        <time>2017-07-24T07:23:03Z</time>
      </trkpt>
      <trkpt lat="43.30248" lon="6.56438">
        <ele>201</ele>
        <time>2017-07-24T07:23:11Z</time>
      </trkpt>
      <trkpt lat="43.30248" lon="6.56387">
        <ele>205</ele>
        <time>2017-07-24T07:23:37Z</time>
      </trkpt>
      <trkpt lat="43.30267" lon="6.56334">
        <ele>207</ele>
        <time>2017-07-24T07:23:52Z</time>
      </trkpt>
      <trkpt lat="43.3028" lon="6.56276">
        <ele>207</ele>
        <time>2017-07-24T07:24:00Z</time>
      </trkpt>
      <trkpt lat="43.30291" lon="6.56224">
        <ele>206</ele>
        <time>2017-07-24T07:24:09Z</time>
      </trkpt>
      <trkpt lat="43.30309" lon="6.56172">
        <ele>207</ele>
        <time>2017-07-24T07:24:22Z</time>
      </trkpt>
      <trkpt lat="43.30325" lon="6.56118">
        <ele>205</ele>
        <time>2017-07-24T07:24:32Z</time>
      </trkpt>
      <trkpt lat="43.30345" lon="6.5607">
        <ele>205</ele>
        <time>2017-07-24T07:24:40Z</time>
      </trkpt>
      <trkpt lat="43.30361" lon="6.56015">
        <ele>201</ele>
        <time>2017-07-24T07:24:50Z</time>
      </trkpt>
      <trkpt lat="43.30384" lon="6.55968">
        <ele>196</ele>
        <time>2017-07-24T07:24:58Z</time>
      </trkpt>
      <trkpt lat="43.30411" lon="6.55928">
        <ele>189</ele>
        <time>2017-07-24T07:25:07Z</time>
      </trkpt>
      <trkpt lat="43.30448" lon="6.55906">
        <ele>187</ele>
        <time>2017-07-24T07:25:15Z</time>
      </trkpt>
      <trkpt lat="43.30488" lon="6.55888">
        <ele>185</ele>
        <time>2017-07-24T07:25:23Z</time>
      </trkpt>
      <trkpt lat="43.30531" lon="6.5587">
        <ele>182</ele>
        <time>2017-07-24T07:25:32Z</time>
      </trkpt>
      <trkpt lat="43.30568" lon="6.55847">
        <ele>177</ele>
        <time>2017-07-24T07:25:41Z</time>
      </trkpt>
      <trkpt lat="43.30587" lon="6.558">
        <ele>171</ele>
        <time>2017-07-24T07:25:47Z</time>
      </trkpt>
      <trkpt lat="43.30599" lon="6.55751">
        <ele>170</ele>
        <time>2017-07-24T07:25:58Z</time>
      </trkpt>
      <trkpt lat="43.30629" lon="6.55718">
        <ele>173</ele>
        <time>2017-07-24T07:26:15Z</time>
      </trkpt>
      <trkpt lat="43.30664" lon="6.55685">
        <ele>178</ele>
        <time>2017-07-24T07:26:33Z</time>
      </trkpt>
      <trkpt lat="43.30692" lon="6.55646">
        <ele>177</ele>
        <time>2017-07-24T07:26:47Z</time>
      </trkpt>
      <trkpt lat="43.30715" lon="6.55605">
        <ele>176</ele>
        <time>2017-07-24T07:27:03Z</time>
      </trkpt>
      <trkpt lat="43.30745" lon="6.55567">
        <ele>176</ele>
        <time>2017-07-24T07:27:20Z</time>
      </trkpt>
      <trkpt lat="43.30782" lon="6.55538">
        <ele>178</ele>
        <time>2017-07-24T07:27:40Z</time>
      </trkpt>
      <trkpt lat="43.30821" lon="6.55511">
        <ele>182</ele>
        <time>2017-07-24T07:27:57Z</time>
      </trkpt>
      <trkpt lat="43.30852" lon="6.5548">
        <ele>183</ele>
        <time>2017-07-24T07:28:13Z</time>
      </trkpt>
      <trkpt lat="43.30892" lon="6.55455">
        <ele>184</ele>
        <time>2017-07-24T07:28:31Z</time>
      </trkpt>
      <trkpt lat="43.30927" lon="6.5542">
        <ele>183</ele>
        <time>2017-07-24T07:28:46Z</time>
      </trkpt>
      <trkpt lat="43.30946" lon="6.55368">
        <ele>180</ele>
        <time>2017-07-24T07:28:57Z</time>
      </trkpt>
      <trkpt lat="43.30965" lon="6.55316">
        <ele>177</ele>
        <time>2017-07-24T07:29:05Z</time>
      </trkpt>
      <trkpt lat="43.30975" lon="6.55266">
        <ele>176</ele>
        <time>2017-07-24T07:29:15Z</time>
      </trkpt>
      <trkpt lat="43.30991" lon="6.55215">
        <ele>177</ele>
        <time>2017-07-24T07:29:30Z</time>
      </trkpt>
      <trkpt lat="43.31009" lon="6.55164">
        <ele>179</ele>
        <time>2017-07-24T07:29:48Z</time>
      </trkpt>
      <trkpt lat="43.31027" lon="6.55111">
        <ele>180</ele>
        <time>2017-07-24T07:30:11Z</time>
      </trkpt>
      <trkpt lat="43.3106" lon="6.55074">
        <ele>183</ele>
        <time>2017-07-24T07:30:29Z</time>
      </trkpt>
      <trkpt lat="43.31083" lon="6.55029">
        <ele>184</ele>
        <time>2017-07-24T07:30:47Z</time>
      </trkpt>
      <trkpt lat="43.31113" lon="6.54995">
        <ele>186</ele>
        <time>2017-07-24T07:31:06Z</time>
      </trkpt>
      <trkpt lat="43.31141" lon="6.54957">
        <ele>186</ele>
        <time>2017-07-24T07:31:22Z</time>
      </trkpt>
      <trkpt lat="43.31171" lon="6.54917">
        <ele>185</ele>
        <time>2017-07-24T07:31:37Z</time>
      </trkpt>
      <trkpt lat="43.31183" lon="6.54864">
        <ele>186</ele>
        <time>2017-07-24T07:31:50Z</time>
      </trkpt>
      <trkpt lat="43.3119" lon="6.54809">
        <ele>187</ele>
        <time>2017-07-24T07:32:02Z</time>
      </trkpt>
      <trkpt lat="43.31204" lon="6.54755">
        <ele>189</ele>
        <time>2017-07-24T07:32:15Z</time>
      </trkpt>
      <trkpt lat="43.31231" lon="6.5471">
        <ele>194</ele>
        <time>2017-07-24T07:32:30Z</time>
      </trkpt>
      <trkpt lat="43.31271" lon="6.5469">
        <ele>193</ele>
        <time>2017-07-24T07:32:48Z</time>
      </trkpt>
      <trkpt lat="43.31297" lon="6.54647">
        <ele>193</ele>
        <time>2017-07-24T07:33:04Z</time>
      </trkpt>
      <trkpt lat="43.31311" lon="6.54591">
        <ele>194</ele>
        <time>2017-07-24T07:33:18Z</time>
      </trkpt>
      <trkpt lat="43.31324" lon="6.54539">
        <ele>193</ele>
        <time>2017-07-24T07:33:32Z</time>
      </trkpt>
      <trkpt lat="43.31326" lon="6.54479">
        <ele>196</ele>
        <time>2017-07-24T07:33:47Z</time>
      </trkpt>
      <trkpt lat="43.31321" lon="6.54424">
        <ele>203</ele>
        <time>2017-07-24T07:34:07Z</time>
      </trkpt>
      <trkpt lat="43.31333" lon="6.54369">
        <ele>204</ele>
        <time>2017-07-24T07:34:29Z</time>
      </trkpt>
      <trkpt lat="43.31352" lon="6.54318">
        <ele>199</ele>
        <time>2017-07-24T07:34:47Z</time>
      </trkpt>
      <trkpt lat="43.31332" lon="6.54271">
        <ele>200</ele>
        <time>2017-07-24T07:35:01Z</time>
      </trkpt>
      <trkpt lat="43.31303" lon="6.54232">
        <ele>199</ele>
        <time>2017-07-24T07:35:13Z</time>
      </trkpt>
      <trkpt lat="43.3128" lon="6.54194">
        <ele>202</ele>
        <time>2017-07-24T07:35:27Z</time>
      </trkpt>
      <trkpt lat="43.31299" lon="6.5414">
        <ele>199</ele>
        <time>2017-07-24T07:35:39Z</time>
      </trkpt>
      <trkpt lat="43.31303" lon="6.54083">
        <ele>200</ele>
        <time>2017-07-24T07:35:51Z</time>
      </trkpt>
      <trkpt lat="43.31284" lon="6.54032">
        <ele>204</ele>
        <time>2017-07-24T07:36:02Z</time>
      </trkpt>
      <trkpt lat="43.31287" lon="6.53979">
        <ele>204</ele>
        <time>2017-07-24T07:36:14Z</time>
      </trkpt>
      <trkpt lat="43.31294" lon="6.53921">
        <ele>202</ele>
        <time>2017-07-24T07:36:25Z</time>
      </trkpt>
      <trkpt lat="43.31288" lon="6.53866">
        <ele>207</ele>
        <time>2017-07-24T07:36:37Z</time>
      </trkpt>
      <trkpt lat="43.31292" lon="6.5381">
        <ele>207</ele>
        <time>2017-07-24T07:36:51Z</time>
      </trkpt>
      <trkpt lat="43.31294" lon="6.53753">
        <ele>209</ele>
        <time>2017-07-24T07:37:04Z</time>
      </trkpt>
      <trkpt lat="43.31299" lon="6.53697">
        <ele>210</ele>
        <time>2017-07-24T07:37:20Z</time>
      </trkpt>
      <trkpt lat="43.31306" lon="6.53642">
        <ele>213</ele>
        <time>2017-07-24T07:37:37Z</time>
      </trkpt>
      <trkpt lat="43.31321" lon="6.5359">
        <ele>214</ele>
        <time>2017-07-24T07:37:54Z</time>
      </trkpt>
      <trkpt lat="43.31339" lon="6.53539">
        <ele>212</ele>
        <time>2017-07-24T07:38:12Z</time>
      </trkpt>
      <trkpt lat="43.31334" lon="6.53486">
        <ele>217</ele>
        <time>2017-07-24T07:38:29Z</time>
      </trkpt>
      <trkpt lat="43.31337" lon="6.5343">
        <ele>223</ele>
        <time>2017-07-24T07:38:49Z</time>
      </trkpt>
      <trkpt lat="43.31365" lon="6.53388">
        <ele>222</ele>
        <time>2017-07-24T07:39:09Z</time>
      </trkpt>
      <trkpt lat="43.31399" lon="6.53357">
        <ele>219</ele>
        <time>2017-07-24T07:39:28Z</time>
      </trkpt>
      <trkpt lat="43.31427" lon="6.53317">
        <ele>221</ele>
        <time>2017-07-24T07:39:46Z</time>
      </trkpt>
      <trkpt lat="43.3145" lon="6.53275">
        <ele>222</ele>
        <time>2017-07-24T07:40:02Z</time>
      </trkpt>
      <trkpt lat="43.31464" lon="6.53224">
        <ele>225</ele>
        <time>2017-07-24T07:40:23Z</time>
      </trkpt>
      <trkpt lat="43.31479" lon="6.53173">
        <ele>227</ele>
        <time>2017-07-24T07:40:54Z</time>
      </trkpt>
      <trkpt lat="43.31484" lon="6.53116">
        <ele>231</ele>
        <time>2017-07-24T07:44:48Z</time>
      </trkpt>
      <trkpt lat="43.31481" lon="6.5306">
        <ele>234</ele>
        <time>2017-07-24T07:45:06Z</time>
      </trkpt>
      <trkpt lat="43.31476" lon="6.53007">
        <ele>235</ele>
        <time>2017-07-24T07:45:24Z</time>
      </trkpt>
      <trkpt lat="43.31461" lon="6.5296">
        <ele>237</ele>
        <time>2017-07-24T07:45:45Z</time>
      </trkpt>
      <trkpt lat="43.31439" lon="6.52914">
        <ele>243</ele>
        <time>2017-07-24T07:46:11Z</time>
      </trkpt>
      <trkpt lat="43.3144" lon="6.52859">
        <ele>242</ele>
        <time>2017-07-24T07:46:31Z</time>
      </trkpt>
      <trkpt lat="43.31428" lon="6.52807">
        <ele>247</ele>
        <time>2017-07-24T07:46:53Z</time>
      </trkpt>
      <trkpt lat="43.31416" lon="6.52751">
        <ele>248</ele>
        <time>2017-07-24T07:47:17Z</time>
      </trkpt>
      <trkpt lat="43.3141" lon="6.52694">
        <ele>245</ele>
        <time>2017-07-24T07:47:38Z</time>
      </trkpt>
      <trkpt lat="43.31379" lon="6.52664">
        <ele>249</ele>
        <time>2017-07-24T07:47:55Z</time>
      </trkpt>
      <trkpt lat="43.31339" lon="6.52658">
        <ele>254</ele>
        <time>2017-07-24T07:48:11Z</time>
      </trkpt>
      <trkpt lat="43.31305" lon="6.52631">
        <ele>254</ele>
        <time>2017-07-24T07:48:25Z</time>
      </trkpt>
      <trkpt lat="43.31271" lon="6.526">
        <ele>251</ele>
        <time>2017-07-24T07:48:35Z</time>
      </trkpt>
      <trkpt lat="43.3123" lon="6.52583">
        <ele>250</ele>
        <time>2017-07-24T07:48:45Z</time>
      </trkpt>
      <trkpt lat="43.3119" lon="6.52581">
        <ele>248</ele>
        <time>2017-07-24T07:48:52Z</time>
      </trkpt>
      <trkpt lat="43.31151" lon="6.52586">
        <ele>244</ele>
        <time>2017-07-24T07:48:57Z</time>
      </trkpt>
      <trkpt lat="43.31107" lon="6.52589">
        <ele>238</ele>
        <time>2017-07-24T07:49:03Z</time>
      </trkpt>
      <trkpt lat="43.31066" lon="6.52588">
        <ele>237</ele>
        <time>2017-07-24T07:49:09Z</time>
      </trkpt>
      <trkpt lat="43.31066" lon="6.52537">
        <ele>233</ele>
        <time>2017-07-24T07:49:23Z</time>
      </trkpt>
      <trkpt lat="43.31088" lon="6.52492">
        <ele>239</ele>
        <time>2017-07-24T07:49:45Z</time>
      </trkpt>
      <trkpt lat="43.31097" lon="6.52438">
        <ele>244</ele>
        <time>2017-07-24T07:50:10Z</time>
      </trkpt>
      <trkpt lat="43.31085" lon="6.52385">
        <ele>250</ele>
        <time>2017-07-24T07:50:36Z</time>
      </trkpt>
      <trkpt lat="43.31088" lon="6.52333">
        <ele>252</ele>
        <time>2017-07-24T07:51:03Z</time>
      </trkpt>
      <trkpt lat="43.31073" lon="6.52284">
        <ele>255</ele>
        <time>2017-07-24T07:51:31Z</time>
      </trkpt>
      <trkpt lat="43.31041" lon="6.52252">
        <ele>257</ele>
        <time>2017-07-24T07:51:58Z</time>
      </trkpt>
      <trkpt lat="43.31005" lon="6.52229">
        <ele>259</ele>
        <time>2017-07-24T07:52:22Z</time>
      </trkpt>
      <trkpt lat="43.30971" lon="6.52252">
        <ele>262</ele>
        <time>2017-07-24T07:52:43Z</time>
      </trkpt>
      <trkpt lat="43.3093" lon="6.5227">
        <ele>262</ele>
        <time>2017-07-24T07:52:59Z</time>
      </trkpt>
      <trkpt lat="43.30888" lon="6.52274">
        <ele>263</ele>
        <time>2017-07-24T07:53:13Z</time>
      </trkpt>
      <trkpt lat="43.30846" lon="6.52259">
        <ele>264</ele>
        <time>2017-07-24T07:53:25Z</time>
      </trkpt>
      <trkpt lat="43.30811" lon="6.5223">
        <ele>263</ele>
        <time>2017-07-24T07:53:39Z</time>
      </trkpt>
      <trkpt lat="43.30769" lon="6.52224">
        <ele>264</ele>
        <time>2017-07-24T07:53:55Z</time>
      </trkpt>
      <trkpt lat="43.30725" lon="6.52224">
        <ele>267</ele>
        <time>2017-07-24T07:54:09Z</time>
      </trkpt>
      <trkpt lat="43.3069" lon="6.52193">
        <ele>268</ele>
        <time>2017-07-24T07:54:25Z</time>
      </trkpt>
      <trkpt lat="43.30653" lon="6.52171">
        <ele>270</ele>
        <time>2017-07-24T07:54:40Z</time>
      </trkpt>
      <trkpt lat="43.30616" lon="6.52143">
        <ele>271</ele>
        <time>2017-07-24T07:54:53Z</time>
      </trkpt>
      <trkpt lat="43.30581" lon="6.52118">
        <ele>272</ele>
        <time>2017-07-24T07:55:08Z</time>
      </trkpt>
      <trkpt lat="43.30544" lon="6.52099">
        <ele>272</ele>
        <time>2017-07-24T07:55:23Z</time>
      </trkpt>
      <trkpt lat="43.30505" lon="6.52083">
        <ele>271</ele>
        <time>2017-07-24T07:55:36Z</time>
      </trkpt>
      <trkpt lat="43.30316" lon="6.52023">
        <ele>271</ele>
        <time>2017-07-24T07:55:49Z</time>
      </trkpt>
      <trkpt lat="43.30189" lon="6.51816">
        <ele>302</ele>
        <time>2017-07-24T07:56:05Z</time>
      </trkpt>
      <trkpt lat="43.30098" lon="6.51717">
        <ele>311</ele>
        <time>2017-07-24T07:56:22Z</time>
      </trkpt>
      <trkpt lat="43.30044" lon="6.51603">
        <ele>308</ele>
        <time>2017-07-24T07:56:38Z</time>
      </trkpt>
      <trkpt lat="43.30114" lon="6.51423">
        <ele>320</ele>
        <time>2017-07-24T07:56:53Z</time>
      </trkpt>
      <trkpt lat="43.30038" lon="6.513">
        <ele>302</ele>
        <time>2017-07-24T07:57:15Z</time>
      </trkpt>
      <trkpt lat="43.29972" lon="6.51258">
        <ele>294</ele>
        <time>2017-07-24T07:57:46Z</time>
      </trkpt>
      <trkpt lat="43.29872" lon="6.51159">
        <ele>283</ele>
        <time>2017-07-24T07:59:05Z</time>
      </trkpt>
      <trkpt lat="43.29724" lon="6.50926">
        <ele>272</ele>
        <time>2017-07-24T07:59:58Z</time>
      </trkpt>
      <trkpt lat="43.29572" lon="6.50909">
        <ele>241</ele>
        <time>2017-07-24T08:00:27Z</time>
      </trkpt>
      <trkpt lat="43.29459" lon="6.50919">
        <ele>213</ele>
        <time>2017-07-24T08:00:58Z</time>
      </trkpt>
      <trkpt lat="43.29387" lon="6.51019">
        <ele>190</ele>
        <time>2017-07-24T08:01:22Z</time>
      </trkpt>
      <trkpt lat="43.29243" lon="6.51039">
        <ele>177</ele>
        <time>2017-07-24T08:01:47Z</time>
      </trkpt>
      <trkpt lat="43.29123" lon="6.51">
        <ele>148</ele>
        <time>2017-07-24T08:02:03Z</time>
      </trkpt>
      <trkpt lat="43.28942" lon="6.50789">
        <ele>87</ele>
        <time>2017-07-24T08:02:10Z</time>
      </trkpt>
      <trkpt lat="43.28887" lon="6.50822">
        <ele>80</ele>
        <time>2017-07-24T08:02:21Z</time>
      </trkpt>
      <trkpt lat="43.28803" lon="6.50662">
        <ele>81</ele>
        <time>2017-07-24T08:02:33Z</time>
      </trkpt>
      <trkpt lat="43.28774" lon="6.50722">
        <ele>82</ele>
        <time>2017-07-24T08:02:46Z</time>
      </trkpt>
      <trkpt lat="43.28806" lon="6.50921">
        <ele>81</ele>
        <time>2017-07-24T08:02:56Z</time>
      </trkpt>
      <trkpt lat="43.28713" lon="6.50668">
        <ele>84</ele>
        <time>2017-07-24T08:03:08Z</time>
      </trkpt>
      <trkpt lat="43.28662" lon="6.50646">
        <ele>84</ele>
        <time>2017-07-24T08:03:15Z</time>
      </trkpt>
      <trkpt lat="43.28598" lon="6.50721">
        <ele>78</ele>
        <time>2017-07-24T08:03:21Z</time>
      </trkpt>
      <trkpt lat="43.28481" lon="6.50842">
        <ele>86</ele>
        <time>2017-07-24T08:03:31Z</time>
      </trkpt>
      <trkpt lat="43.28509" lon="6.50936">
        <ele>87</ele>
        <time>2017-07-24T08:03:43Z</time>
      </trkpt>
      <trkpt lat="43.28561" lon="6.51211">
        <ele>87</ele>
        <time>2017-07-24T08:03:53Z</time>
      </trkpt>
      <trkpt lat="43.28448" lon="6.51228">
        <ele>86</ele>
        <time>2017-07-24T08:04:07Z</time>
      </trkpt>
      <trkpt lat="43.2836" lon="6.51418">
        <ele>73</ele>
        <time>2017-07-24T08:04:18Z</time>
      </trkpt>
      <trkpt lat="43.28147" lon="6.51674">
        <ele>62</ele>
        <time>2017-07-24T08:04:29Z</time>
      </trkpt>
      <trkpt lat="43.27598" lon="6.51575">
        <ele>72</ele>
      </trkpt>
      <trkpt lat="43.27625" lon="6.51749">
        <ele>82</ele>
      </trkpt>
      <trkpt lat="43.276" lon="6.51797">
        <ele>76</ele>
      </trkpt>
      <trkpt lat="43.27803" lon="6.52024">
        <ele>42</ele>
      </trkpt>
      <trkpt lat="43.27826" lon="6.52525">
        <ele>43</ele>
      </trkpt>
      <trkpt lat="43.27605" lon="6.52782">
        <ele>21</ele>
      </trkpt>
      <trkpt lat="43.27362" lon="6.53821">
        <ele>17.797501</ele>
      </trkpt>
      <trkpt lat="43.27076" lon="6.55358">
        <ele>9.7975</ele>
      </trkpt>
      <trkpt lat="43.27543" lon="6.56777">
        <ele>6</ele>
      </trkpt>
      <trkpt lat="43.27947" lon="6.57712">
        <ele>9</ele>
        <time>2017-07-24T08:04:34Z</time>
      </trkpt>
    </trkseg>
  </trk>
</gpx>